Bosporus — V2QY — position and weather

sailwx.info

Track history (hours):
 
Tides and Currents Weather Stations Pressure Air Temp Water Temp Dewpoint Dewpoint Depression Visibility Wind Speed Wind Dir Waves Ship Positions

Bosporus

Last reported at 2016-Jul-24 07:33 UTC. Time now 2016-Jul-24 12:53 UTC.
Position N 40°31' E 014°09'.

Length 100 m; draft 4.6 m.

Type: Cargo ship. MMSI: 304010802.

Date/timePositionNaut miles runAvg speedWind from/ knotsBaromVisibWave heightAir tempDewpointWater temp
2016-Jul-24 07:33N 40°31' E 014°09'9 8.9
2016-Jul-24 06:33N 40°35' E 013°59'18 8.8
2016-Jul-24 04:33N 40°44' E 013°39'8 8.2
2016-Jul-24 03:33N 40°50' E 013°32'21 8.9
2016-Jul-24 01:11N 41°02' E 013°09'6 8.9
2016-Jul-24 00:31N 41°06' E 013°03'8 8.8
2016-Jul-23 23:33N 41°11' E 012°53'155 3.6
2016-Jul-22 04:29N 42°56' E 010°21'9 9.4
2016-Jul-22 03:33N 42°56' E 010°09'9 9.5
2016-Jul-22 02:33N 42°55' E 009°56'9 9.3
2016-Jul-22 01:33N 42°55' E 009°44'10 9.3
2016-Jul-22 00:28N 43°00' E 009°32'10010.1
2016-Jul-21 14:33N 42°58' E 007°16'1010.1
2016-Jul-21 13:33N 42°57' E 007°02'10 9.9
2016-Jul-21 12:31N 42°57' E 006°48'1210.1
2016-Jul-21 11:20N 42°57' E 006°32'810.3
2016-Jul-21 10:33N 42°56' E 006°20'  
2016-Jul-19 02:27N 41°46' E 003°10'2311.8
2016-Jul-19 00:29N 41°32' E 002°46'3711.1
2016-Jul-18 21:10N 41°13' E 002°04'22 1.1
2016-Jul-18 01:18N 41°24' E 002°30'6910.2
2016-Jul-17 18:32N 42°10' E 003°38'  
Track history (hours):
 
Tides and Currents Weather Stations Pressure Air Temp Water Temp Dewpoint Dewpoint Depression Visibility Wind Speed Wind Dir Waves Ship Positions

Bosporus

Last reported at 2016-Jul-24 07:33 UTC. Time now 2016-Jul-24 12:53 UTC.
Position N 40°31' E 014°09'.

Length 100 m; draft 4.6 m.

Type: Cargo ship. MMSI: 304010802.

Date/timePositionNaut miles runAvg speedWind from/ knotsBaromVisibWave heightAir tempDewpointWater temp
2016-Jul-24 07:33N 40°31' E 014°09'9 8.9
2016-Jul-24 06:33N 40°35' E 013°59'18 8.8
2016-Jul-24 04:33N 40°44' E 013°39'8 8.2
2016-Jul-24 03:33N 40°50' E 013°32'21 8.9
2016-Jul-24 01:11N 41°02' E 013°09'6 8.9
2016-Jul-24 00:31N 41°06' E 013°03'8 8.8
2016-Jul-23 23:33N 41°11' E 012°53'155 3.6
2016-Jul-22 04:29N 42°56' E 010°21'9 9.4
2016-Jul-22 03:33N 42°56' E 010°09'9 9.5
2016-Jul-22 02:33N 42°55' E 009°56'9 9.3
2016-Jul-22 01:33N 42°55' E 009°44'10 9.3
2016-Jul-22 00:28N 43°00' E 009°32'10010.1
2016-Jul-21 14:33N 42°58' E 007°16'1010.1
2016-Jul-21 13:33N 42°57' E 007°02'10 9.9
2016-Jul-21 12:31N 42°57' E 006°48'1210.1
2016-Jul-21 11:20N 42°57' E 006°32'810.3
2016-Jul-21 10:33N 42°56' E 006°20'  
2016-Jul-19 02:27N 41°46' E 003°10'2311.8
2016-Jul-19 00:29N 41°32' E 002°46'3711.1
2016-Jul-18 21:10N 41°13' E 002°04'22 1.1
2016-Jul-18 01:18N 41°24' E 002°30'6910.2
2016-Jul-17 18:32N 42°10' E 003°38'  

Dump ship's entire track history